Time;durP1;ratioP1;P1;durP2;ratioP2;P2;SDS_P1;SDS_P2;PMS_P1;PMS_P2;Temp;Humidity;BMP_temperature;BMP_pressure;BME280_temperature;BME280_humidity;BME280_pressure;Samples;Min_cycle;Max_cycle;Signal;HPM_P1;HPM_P2
2022/09/17 00:00:49;;;;;;;;;;;10.30;99.90;;;;;;5079527;28;20693;-69
2022/09/17 00:03:17;;;;;;;;;;;10.30;99.90;;;;;;5076461;28;19950;-70
2022/09/17 00:05:44;;;;;;;;;;;10.30;99.90;;;;;;5083388;28;19931;-70
2022/09/17 00:08:13;;;;;;;;;;;10.30;99.90;;;;;;5080628;28;19924;-70
2022/09/17 00:10:41;;;;;;;;;;;10.30;99.90;;;;;;5083534;28;20015;-71
2022/09/17 00:13:08;;;;;;;;;;;10.30;99.90;;;;;;5075566;28;19928;-72
2022/09/17 00:15:39;;;;;;;;;;;10.30;99.90;;;;;;5075419;28;19924;-70
2022/09/17 00:18:06;;;;;;;;;;;10.30;99.90;;;;;;5081656;28;19930;-70
2022/09/17 00:20:37;;;;;;;;;;;10.30;99.90;;;;;;5077216;28;20033;-70
2022/09/17 00:23:04;;;;;;;;;;;10.30;99.90;;;;;;5078249;28;19930;-70
2022/09/17 00:25:30;;;;;;;;;;;10.30;99.90;;;;;;5076116;28;19932;-71
2022/09/17 00:27:57;;;;;;;;;;;10.30;99.90;;;;;;5078073;28;20376;-70
2022/09/17 00:30:24;;;;;;;;;;;10.30;99.90;;;;;;5084581;28;19932;-69
2022/09/17 00:32:52;;;;;;;;;;;10.30;99.90;;;;;;5083249;28;19931;-70
2022/09/17 00:35:18;;;;;;;;;;;10.30;99.90;;;;;;5083930;28;20011;-70
2022/09/17 00:37:46;;;;;;;;;;;10.40;99.90;;;;;;5086132;28;19924;-70
2022/09/17 00:40:13;;;;;;;;;;;10.40;99.90;;;;;;5082725;28;19924;-70
2022/09/17 00:42:39;;;;;;;;;;;10.30;99.90;;;;;;5081671;28;19924;-70
2022/09/17 00:45:07;;;;;;;;;;;10.30;99.90;;;;;;5080556;28;20020;-70
2022/09/17 00:47:35;;;;;;;;;;;10.30;99.90;;;;;;5087313;28;20294;-70
2022/09/17 00:50:03;;;;;;;;;;;10.30;99.90;;;;;;5085119;28;19925;-71
2022/09/17 00:52:32;;;;;;;;;;;10.30;99.90;;;;;;5080594;28;20303;-70
2022/09/17 00:55:03;;;;;;;;;;;10.30;99.90;;;;;;5075650;28;19931;-71
2022/09/17 00:57:30;;;;;;;;;;;10.30;99.90;;;;;;5083145;28;20016;-71
2022/09/17 00:59:57;;;;;;;;;;;10.30;99.90;;;;;;5076109;28;19932;-71
2022/09/17 01:02:25;;;;;;;;;;;10.30;99.90;;;;;;5079355;28;19931;-71
2022/09/17 01:04:52;;;;;;;;;;;10.30;99.90;;;;;;5082688;28;20405;-71
2022/09/17 01:07:26;;;;;;;;;;;10.30;99.90;;;;;;5072459;28;19924;-71
2022/09/17 01:09:55;;;;;;;;;;;10.40;99.90;;;;;;5070497;28;20386;-71
2022/09/17 01:12:31;;;;;;;;;;;10.40;99.90;;;;;;5080176;28;20054;-70
2022/09/17 01:15:04;;;;;;;;;;;10.40;99.90;;;;;;5085132;28;20387;-71
2022/09/17 01:17:36;;;;;;;;;;;10.30;99.90;;;;;;5078267;28;19924;-71
2022/09/17 01:20:15;;;;;;;;;;;10.30;99.90;;;;;;5077632;28;19931;-71
2022/09/17 01:22:46;;;;;;;;;;;10.30;99.90;;;;;;5077324;28;20369;-71
2022/09/17 01:25:21;;;;;;;;;;;10.30;99.90;;;;;;5079505;28;20022;-71
2022/09/17 01:28:03;;;;;;;;;;;10.30;99.90;;;;;;5082203;28;20331;-71
2022/09/17 01:30:57;;;;;;;;;;;10.30;99.90;;;;;;5073514;28;19931;-71
2022/09/17 01:33:29;;;;;;;;;;;10.30;99.90;;;;;;5037491;28;19923;-70
2022/09/17 01:36:03;;;;;;;;;;;10.40;99.90;;;;;;5074363;28;20444;-69
2022/09/17 01:38:32;;;;;;;;;;;10.40;99.90;;;;;;5075383;28;20031;-69
2022/09/17 01:41:06;;;;;;;;;;;10.40;99.90;;;;;;5073183;28;20326;-69
2022/09/17 01:43:36;;;;;;;;;;;10.40;99.90;;;;;;5075186;28;20367;-70
2022/09/17 01:46:04;;;;;;;;;;;10.40;99.90;;;;;;5072880;28;19939;-69
2022/09/17 01:48:34;;;;;;;;;;;10.30;99.90;;;;;;5086105;28;19928;-69
2022/09/17 01:51:05;;;;;;;;;;;10.40;99.90;;;;;;5077785;28;20313;-69
2022/09/17 01:53:35;;;;;;;;;;;10.40;99.90;;;;;;5071267;28;19934;-69
2022/09/17 01:56:03;;;;;;;;;;;10.40;99.90;;;;;;5085354;28;20290;-69
2022/09/17 01:58:32;;;;;;;;;;;10.50;99.90;;;;;;5071138;28;19931;-70
2022/09/17 02:01:01;;;;;;;;;;;10.50;99.90;;;;;;5072011;28;19924;-70
2022/09/17 02:03:30;;;;;;;;;;;10.50;99.90;;;;;;5077325;28;19924;-69
2022/09/17 02:05:59;;;;;;;;;;;10.60;99.90;;;;;;5079381;28;20387;-69
2022/09/17 02:08:28;;;;;;;;;;;10.60;99.90;;;;;;5086817;28;19936;-69
2022/09/17 02:10:57;;;;;;;;;;;10.60;99.90;;;;;;5077500;28;19933;-69
2022/09/17 02:13:26;;;;;;;;;;;10.60;99.90;;;;;;5078524;28;20011;-69
2022/09/17 02:15:55;;;;;;;;;;;10.60;99.90;;;;;;5081673;28;19924;-70
2022/09/17 02:18:25;;;;;;;;;;;10.60;99.90;;;;;;5085794;28;19947;-69
2022/09/17 02:20:54;;;;;;;;;;;10.60;99.90;;;;;;5079351;28;20090;-69
2022/09/17 02:23:24;;;;;;;;;;;10.60;99.90;;;;;;5082970;28;19924;-69
2022/09/17 02:25:53;;;;;;;;;;;10.60;99.90;;;;;;5088669;28;20387;-70
2022/09/17 02:28:24;;;;;;;;;;;10.60;99.90;;;;;;5087664;28;19928;-70
2022/09/17 02:30:50;;;;;;;;;;;10.70;99.90;;;;;;5085571;28;20527;-70
2022/09/17 02:33:18;;;;;;;;;;;10.60;99.90;;;;;;5073234;28;19925;-71
2022/09/17 02:35:46;;;;;;;;;;;10.60;99.90;;;;;;5073660;28;20375;-70
2022/09/17 02:38:13;;;;;;;;;;;10.60;99.90;;;;;;5078445;28;22181;-70
2022/09/17 02:40:44;;;;;;;;;;;10.60;99.90;;;;;;5075806;28;19981;-70
2022/09/17 02:43:15;;;;;;;;;;;10.60;99.90;;;;;;5079184;28;19935;-70
2022/09/17 02:45:48;;;;;;;;;;;10.60;99.90;;;;;;5074103;28;20283;-70
2022/09/17 02:48:31;;;;;;;;;;;10.50;99.90;;;;;;5079537;28;19924;-70
2022/09/17 02:51:05;;;;;;;;;;;10.50;99.90;;;;;;5074532;28;19928;-70
2022/09/17 02:53:37;;;;;;;;;;;10.40;99.90;;;;;;5082090;28;19928;-71
2022/09/17 02:56:12;;;;;;;;;;;10.30;99.90;;;;;;5078524;28;20286;-70
2022/09/17 02:58:43;;;;;;;;;;;10.30;99.90;;;;;;5074228;28;19978;-70
2022/09/17 03:01:14;;;;;;;;;;;10.20;99.90;;;;;;5075269;28;20016;-70
2022/09/17 03:03:43;;;;;;;;;;;10.10;99.90;;;;;;5084042;28;19978;-70
2022/09/17 03:06:09;;;;;;;;;;;10.10;99.90;;;;;;5090356;28;20293;-71
2022/09/17 03:08:38;;;;;;;;;;;10.10;99.90;;;;;;5078099;28;19930;-70
2022/09/17 03:11:08;;;;;;;;;;;10.10;99.90;;;;;;5079097;28;19954;-71
2022/09/17 03:13:34;;;;;;;;;;;10.10;99.90;;;;;;5079493;28;19971;-70
2022/09/17 03:16:01;;;;;;;;;;;10.10;99.90;;;;;;5079582;28;19928;-70
2022/09/17 03:18:28;;;;;;;;;;;10.00;99.90;;;;;;5072078;28;20054;-71
2022/09/17 03:20:55;;;;;;;;;;;10.00;99.90;;;;;;5080913;28;19931;-70
2022/09/17 03:23:21;;;;;;;;;;;10.00;99.90;;;;;;5076100;28;19928;-70
2022/09/17 03:25:49;;;;;;;;;;;9.90;99.90;;;;;;5076069;28;20307;-70
2022/09/17 03:28:17;;;;;;;;;;;9.90;99.90;;;;;;5087869;28;19924;-70
2022/09/17 03:30:43;;;;;;;;;;;9.80;99.90;;;;;;5075522;28;20011;-70
2022/09/17 03:33:10;;;;;;;;;;;9.80;99.90;;;;;;5089130;28;20361;-70
2022/09/17 03:35:37;;;;;;;;;;;9.80;99.90;;;;;;5078927;28;20356;-70
2022/09/17 03:38:04;;;;;;;;;;;9.70;99.90;;;;;;5083247;28;19938;-70
2022/09/17 03:40:30;;;;;;;;;;;9.70;99.90;;;;;;5079451;28;19967;-70
2022/09/17 03:42:57;;;;;;;;;;;9.70;99.90;;;;;;5086741;28;19924;-70
2022/09/17 03:45:25;;;;;;;;;;;9.60;99.90;;;;;;5077217;28;20023;-70
2022/09/17 03:47:52;;;;;;;;;;;9.60;99.90;;;;;;5078807;28;19935;-69
2022/09/17 03:50:18;;;;;;;;;;;9.60;99.90;;;;;;5087836;28;19967;-70
2022/09/17 03:52:45;;;;;;;;;;;9.60;99.90;;;;;;5083979;28;20387;-70
2022/09/17 03:55:11;;;;;;;;;;;9.50;99.90;;;;;;5088361;28;20010;-70
2022/09/17 03:57:38;;;;;;;;;;;9.60;99.90;;;;;;5089191;28;19924;-70
2022/09/17 04:00:05;;;;;;;;;;;9.60;99.90;;;;;;5086060;28;20023;-70
2022/09/17 04:02:33;;;;;;;;;;;9.60;99.90;;;;;;5071345;28;19928;-69
2022/09/17 04:05:00;;;;;;;;;;;9.50;99.90;;;;;;5092792;28;20314;-70
2022/09/17 04:07:27;;;;;;;;;;;9.50;99.90;;;;;;5085444;28;20356;-70
2022/09/17 04:09:54;;;;;;;;;;;9.40;99.90;;;;;;5093759;28;19932;-70
2022/09/17 04:12:20;;;;;;;;;;;9.40;99.90;;;;;;5090591;28;19932;-71
2022/09/17 04:14:47;;;;;;;;;;;9.40;99.90;;;;;;5088385;28;19925;-71
2022/09/17 04:17:16;;;;;;;;;;;9.40;99.90;;;;;;5082899;28;19924;-70
2022/09/17 04:19:44;;;;;;;;;;;9.40;99.90;;;;;;5081907;28;19932;-70
2022/09/17 04:22:11;;;;;;;;;;;9.40;99.90;;;;;;5080250;28;20045;-70
2022/09/17 04:24:38;;;;;;;;;;;9.30;99.90;;;;;;5094798;28;19977;-71
2022/09/17 04:27:05;;;;;;;;;;;9.40;99.90;;;;;;5086091;28;20012;-72
2022/09/17 04:29:31;;;;;;;;;;;9.40;99.90;;;;;;5085374;28;19931;-71
2022/09/17 04:31:58;;;;;;;;;;;9.40;99.90;;;;;;5077087;28;19924;-71
2022/09/17 04:34:24;;;;;;;;;;;9.40;99.90;;;;;;5077118;28;20369;-71
2022/09/17 04:36:52;;;;;;;;;;;9.40;99.90;;;;;;5075778;28;19930;-71
2022/09/17 04:39:19;;;;;;;;;;;9.40;99.90;;;;;;5072686;28;19925;-71
2022/09/17 04:41:46;;;;;;;;;;;9.40;99.90;;;;;;5097499;28;20289;-70
2022/09/17 04:44:13;;;;;;;;;;;9.30;99.90;;;;;;5087601;28;19928;-70
2022/09/17 04:46:40;;;;;;;;;;;9.20;99.90;;;;;;5089650;28;19930;-70
2022/09/17 04:49:07;;;;;;;;;;;9.20;99.90;;;;;;5094878;28;19924;-70
2022/09/17 04:51:34;;;;;;;;;;;9.20;99.90;;;;;;5083168;28;19931;-69
2022/09/17 04:54:02;;;;;;;;;;;9.20;99.90;;;;;;5079898;28;19938;-69
2022/09/17 04:56:29;;;;;;;;;;;9.20;99.90;;;;;;5072140;28;19932;-69
2022/09/17 04:58:56;;;;;;;;;;;9.10;99.90;;;;;;5084395;28;19931;-69
2022/09/17 05:01:22;;;;;;;;;;;9.10;99.90;;;;;;5078993;28;20027;-69
2022/09/17 05:03:49;;;;;;;;;;;9.10;99.90;;;;;;5081438;28;19939;-68
2022/09/17 05:06:16;;;;;;;;;;;9.20;99.90;;;;;;5079631;28;19939;-69
2022/09/17 05:08:42;;;;;;;;;;;9.20;99.90;;;;;;5078310;28;19938;-68
2022/09/17 05:11:11;;;;;;;;;;;9.30;99.90;;;;;;5084904;28;19971;-68
2022/09/17 05:13:38;;;;;;;;;;;9.40;99.90;;;;;;5093194;28;19924;-68
2022/09/17 05:16:04;;;;;;;;;;;9.50;99.90;;;;;;5081597;28;19935;-69
2022/09/17 05:18:31;;;;;;;;;;;9.50;99.90;;;;;;5080950;28;19928;-69
2022/09/17 05:20:58;;;;;;;;;;;9.60;99.90;;;;;;5071034;28;19931;-69
2022/09/17 05:23:24;;;;;;;;;;;9.60;99.90;;;;;;5089701;28;20015;-69
2022/09/17 05:25:51;;;;;;;;;;;9.70;99.90;;;;;;5070382;28;20035;-69
2022/09/17 05:28:19;;;;;;;;;;;9.80;99.90;;;;;;5076270;28;20554;-70
2022/09/17 05:30:46;;;;;;;;;;;9.80;99.90;;;;;;5078368;28;19924;-69
2022/09/17 05:33:12;;;;;;;;;;;9.80;99.90;;;;;;5075629;28;19931;-70
2022/09/17 05:35:39;;;;;;;;;;;9.90;99.90;;;;;;5078677;28;19924;-70
2022/09/17 05:38:07;;;;;;;;;;;9.90;99.90;;;;;;5082846;28;20440;-70
2022/09/17 05:40:34;;;;;;;;;;;9.90;99.90;;;;;;5081785;28;19924;-70
2022/09/17 05:43:01;;;;;;;;;;;9.90;99.90;;;;;;5078290;28;20026;-70
2022/09/17 05:45:29;;;;;;;;;;;10.00;99.90;;;;;;5085351;28;19931;-70
2022/09/17 05:47:56;;;;;;;;;;;10.00;99.90;;;;;;5078401;28;20383;-70
2022/09/17 05:50:23;;;;;;;;;;;10.00;99.90;;;;;;5075901;28;20352;-70
2022/09/17 05:52:50;;;;;;;;;;;10.10;99.90;;;;;;5080632;28;19924;-70
2022/09/17 05:55:16;;;;;;;;;;;10.00;99.90;;;;;;5083328;28;19939;-70
2022/09/17 05:57:43;;;;;;;;;;;10.10;99.90;;;;;;5075452;28;19928;-69
2022/09/17 06:00:10;;;;;;;;;;;10.10;99.90;;;;;;5079720;28;19928;-69
2022/09/17 06:02:38;;;;;;;;;;;10.10;99.90;;;;;;5080855;28;19932;-69
2022/09/17 06:05:05;;;;;;;;;;;10.10;99.90;;;;;;5081432;28;19928;-69
2022/09/17 06:07:34;;;;;;;;;;;10.10;99.90;;;;;;5079619;28;20306;-69
2022/09/17 06:10:01;;;;;;;;;;;10.20;99.90;;;;;;5075060;28;19925;-69
2022/09/17 06:12:28;;;;;;;;;;;10.20;99.90;;;;;;5079371;28;19925;-69
2022/09/17 06:14:54;;;;;;;;;;;10.20;99.90;;;;;;5086483;28;20011;-69
2022/09/17 06:17:21;;;;;;;;;;;10.40;99.90;;;;;;5078673;28;19923;-69
2022/09/17 06:19:49;;;;;;;;;;;10.40;99.90;;;;;;5091969;28;20387;-69
2022/09/17 06:22:17;;;;;;;;;;;10.40;99.90;;;;;;5085300;28;20037;-70
2022/09/17 06:24:44;;;;;;;;;;;10.50;99.90;;;;;;5074359;28;19924;-69
2022/09/17 06:27:10;;;;;;;;;;;10.60;99.90;;;;;;5070616;28;19924;-70
2022/09/17 06:29:37;;;;;;;;;;;10.60;99.90;;;;;;5076022;28;20387;-68
2022/09/17 06:32:04;;;;;;;;;;;10.60;99.90;;;;;;5081680;28;19937;-69
2022/09/17 06:34:31;;;;;;;;;;;10.60;99.90;;;;;;5080410;28;19930;-70
2022/09/17 06:36:59;;;;;;;;;;;10.60;99.90;;;;;;5081429;28;19924;-70
2022/09/17 06:39:25;;;;;;;;;;;10.70;99.90;;;;;;5080303;28;19930;-70
2022/09/17 06:41:52;;;;;;;;;;;10.90;99.90;;;;;;5072850;28;20011;-69
2022/09/17 06:44:18;;;;;;;;;;;11.00;99.90;;;;;;5089039;28;19970;-69
2022/09/17 06:46:45;;;;;;;;;;;11.10;99.90;;;;;;5076389;28;19939;-70
2022/09/17 06:49:12;;;;;;;;;;;11.10;99.90;;;;;;5075233;28;20447;-70
2022/09/17 06:51:39;;;;;;;;;;;11.20;99.90;;;;;;5080417;28;19924;-69
2022/09/17 06:54:08;;;;;;;;;;;11.40;99.90;;;;;;5075181;28;19924;-69
2022/09/17 06:56:34;;;;;;;;;;;11.50;99.90;;;;;;5084164;28;20039;-69
2022/09/17 06:59:01;;;;;;;;;;;11.50;99.90;;;;;;5087172;28;19924;-69
2022/09/17 07:01:28;;;;;;;;;;;11.50;99.90;;;;;;5083802;28;20115;-70
2022/09/17 07:03:54;;;;;;;;;;;11.40;99.90;;;;;;5083679;28;19938;-70
2022/09/17 07:06:21;;;;;;;;;;;11.40;99.90;;;;;;5074097;28;19947;-70
2022/09/17 07:08:48;;;;;;;;;;;11.30;99.90;;;;;;5084551;28;19924;-70
2022/09/17 07:11:16;;;;;;;;;;;11.30;99.90;;;;;;5086780;28;20015;-70
2022/09/17 07:13:43;;;;;;;;;;;11.30;99.90;;;;;;5080880;28;19928;-70
2022/09/17 07:16:09;;;;;;;;;;;11.40;99.90;;;;;;5080477;28;20019;-70
2022/09/17 07:18:36;;;;;;;;;;;11.50;99.90;;;;;;5085434;28;20389;-71
2022/09/17 07:21:04;;;;;;;;;;;11.70;99.90;;;;;;5074388;28;19924;-70
2022/09/17 07:23:31;;;;;;;;;;;11.90;99.90;;;;;;5077527;28;19928;-70
2022/09/17 07:25:59;;;;;;;;;;;12.10;99.90;;;;;;5076779;28;19925;-69
2022/09/17 07:28:27;;;;;;;;;;;12.40;99.90;;;;;;5080650;28;20371;-70
2022/09/17 07:30:54;;;;;;;;;;;12.40;99.90;;;;;;5078491;28;19932;-70
2022/09/17 07:33:23;;;;;;;;;;;12.50;99.90;;;;;;5080759;28;19932;-71
2022/09/17 07:35:53;;;;;;;;;;;13.10;99.90;;;;;;5078979;28;20015;-70
2022/09/17 07:38:20;;;;;;;;;;;14.20;99.90;;;;;;5077682;28;19925;-68
2022/09/17 07:40:52;;;;;;;;;;;15.10;99.90;;;;;;5081779;28;19931;-70
2022/09/17 07:43:19;;;;;;;;;;;14.40;99.90;;;;;;5080622;28;20216;-72
2022/09/17 07:45:47;;;;;;;;;;;13.80;99.90;;;;;;5085563;28;19928;-69
2022/09/17 07:48:14;;;;;;;;;;;13.40;99.90;;;;;;5082369;28;19943;-69
2022/09/17 07:50:40;;;;;;;;;;;13.00;99.90;;;;;;5086692;28;20831;-70
2022/09/17 07:53:07;;;;;;;;;;;12.70;99.90;;;;;;5103803;28;20433;-70
2022/09/17 07:55:34;;;;;;;;;;;12.40;99.90;;;;;;5079230;28;19984;-71
2022/09/17 07:58:01;;;;;;;;;;;12.30;99.90;;;;;;5078201;28;19931;-70
2022/09/17 08:00:27;;;;;;;;;;;12.20;99.90;;;;;;5076516;28;19935;-71
2022/09/17 08:02:56;;;;;;;;;;;12.10;99.90;;;;;;5081661;28;19924;-70
2022/09/17 08:05:23;;;;;;;;;;;12.00;99.90;;;;;;5088781;28;20405;-70
2022/09/17 08:07:50;;;;;;;;;;;12.00;99.90;;;;;;5072390;28;19924;-70
2022/09/17 08:10:20;;;;;;;;;;;12.10;99.90;;;;;;5076356;28;19979;-69
2022/09/17 08:12:47;;;;;;;;;;;12.10;99.90;;;;;;5079304;28;19970;-70
2022/09/17 08:15:13;;;;;;;;;;;12.20;99.90;;;;;;5072993;28;19967;-68
2022/09/17 08:17:43;;;;;;;;;;;12.20;99.90;;;;;;5080216;28;19954;-69
2022/09/17 08:20:11;;;;;;;;;;;12.30;99.90;;;;;;5081166;28;19924;-69
2022/09/17 08:22:37;;;;;;;;;;;12.30;99.90;;;;;;5072556;28;20152;-68
2022/09/17 08:25:05;;;;;;;;;;;13.00;99.90;;;;;;5070748;28;19924;-68
2022/09/17 08:27:31;;;;;;;;;;;15.40;99.90;;;;;;5070392;28;20011;-69
2022/09/17 08:29:58;;;;;;;;;;;17.70;99.90;;;;;;5078922;28;20371;-68
2022/09/17 08:32:25;;;;;;;;;;;19.20;99.90;;;;;;5073480;28;19931;-68
2022/09/17 08:34:52;;;;;;;;;;;19.20;99.90;;;;;;5070807;28;19988;-68
2022/09/17 08:37:21;;;;;;;;;;;18.30;99.90;;;;;;5077156;28;19970;-68
2022/09/17 08:39:47;;;;;;;;;;;18.10;99.90;;;;;;5078229;28;20010;-68
2022/09/17 08:42:17;;;;;;;;;;;17.90;99.90;;;;;;5079743;28;19925;-68
2022/09/17 08:44:46;;;;;;;;;;;18.60;99.90;;;;;;5071771;28;20604;-68
2022/09/17 08:47:15;;;;;;;;;;;18.80;99.90;;;;;;5084228;28;19924;-68
2022/09/17 08:49:44;;;;;;;;;;;18.90;99.90;;;;;;5080519;28;20369;-68
2022/09/17 08:52:26;;;;;;;;;;;17.50;99.90;;;;;;5072486;28;19929;-68
2022/09/17 08:54:59;;;;;;;;;;;15.70;99.90;;;;;;5060256;28;20419;-71
2022/09/17 08:57:31;;;;;;;;;;;14.50;99.90;;;;;;5076833;28;19924;-70
2022/09/17 09:00:00;;;;;;;;;;;14.00;99.90;;;;;;5082189;28;19930;-70
2022/09/17 09:02:32;;;;;;;;;;;13.50;99.90;;;;;;5080409;28;19967;-70
2022/09/17 09:05:02;;;;;;;;;;;13.30;99.90;;;;;;5075208;28;19924;-70
2022/09/17 09:07:31;;;;;;;;;;;13.10;99.90;;;;;;5074474;28;19944;-70
2022/09/17 09:10:04;;;;;;;;;;;13.30;99.90;;;;;;5076422;28;19950;-70
2022/09/17 09:12:32;;;;;;;;;;;15.00;99.90;;;;;;5070916;28;19928;-70
2022/09/17 09:15:01;;;;;;;;;;;16.90;99.90;;;;;;5082711;28;19979;-70
2022/09/17 09:17:29;;;;;;;;;;;18.40;99.90;;;;;;5082224;28;20305;-69
2022/09/17 09:19:56;;;;;;;;;;;19.60;99.90;;;;;;5079555;28;19972;-69
2022/09/17 09:22:33;;;;;;;;;;;18.60;99.90;;;;;;5071491;28;20349;-69
2022/09/17 09:25:05;;;;;;;;;;;17.10;99.90;;;;;;5073937;28;19925;-69
2022/09/17 09:27:33;;;;;;;;;;;16.00;99.90;;;;;;5074795;28;19925;-70
2022/09/17 09:30:02;;;;;;;;;;;15.00;99.90;;;;;;5082127;28;19924;-70
2022/09/17 09:32:41;;;;;;;;;;;14.20;99.90;;;;;;5081535;28;19989;-71
2022/09/17 09:35:15;;;;;;;;;;;13.70;99.90;;;;;;5077800;28;19934;-70
2022/09/17 09:37:53;;;;;;;;;;;13.40;99.90;;;;;;5076396;28;20062;-70
2022/09/17 09:40:26;;;;;;;;;;;13.20;99.90;;;;;;5076881;28;19924;-69
2022/09/17 09:42:54;;;;;;;;;;;13.20;99.90;;;;;;5079504;28;20359;-69
2022/09/17 09:45:27;;;;;;;;;;;13.00;99.90;;;;;;5079590;28;19930;-70
2022/09/17 09:47:59;;;;;;;;;;;12.80;99.90;;;;;;5074340;28;19936;-69
2022/09/17 09:50:32;;;;;;;;;;;12.70;99.90;;;;;;5077124;28;19925;-70
2022/09/17 09:53:04;;;;;;;;;;;12.70;99.90;;;;;;5071797;28;19931;-70
2022/09/17 09:55:40;;;;;;;;;;;12.90;99.90;;;;;;5073610;28;19925;-70
2022/09/17 09:58:15;;;;;;;;;;;13.10;99.90;;;;;;5070441;28;19931;-70
2022/09/17 10:00:42;;;;;;;;;;;13.60;99.90;;;;;;5070588;28;19931;-70
2022/09/17 10:03:12;;;;;;;;;;;14.10;99.90;;;;;;5074870;28;19924;-70
2022/09/17 10:05:39;;;;;;;;;;;14.30;99.90;;;;;;5068664;28;19924;-69
2022/09/17 10:08:11;;;;;;;;;;;13.80;99.90;;;;;;5078560;28;19931;-70
2022/09/17 10:10:53;;;;;;;;;;;13.60;99.90;;;;;;5076267;28;20280;-70
2022/09/17 10:13:20;;;;;;;;;;;13.20;99.90;;;;;;5083425;28;19931;-70
2022/09/17 10:15:47;;;;;;;;;;;13.20;99.90;;;;;;5079686;28;20387;-71
2022/09/17 10:18:17;;;;;;;;;;;13.10;99.90;;;;;;5075466;28;19932;-71
2022/09/17 10:20:51;;;;;;;;;;;12.90;99.90;;;;;;5071921;28;19996;-70
2022/09/17 10:23:18;;;;;;;;;;;12.90;99.90;;;;;;5071625;28;20401;-70
2022/09/17 10:25:47;;;;;;;;;;;13.00;99.90;;;;;;5087577;28;19924;-70
2022/09/17 10:28:29;;;;;;;;;;;13.20;99.90;;;;;;5077686;28;20015;-70
2022/09/17 10:30:57;;;;;;;;;;;13.30;99.90;;;;;;5073970;28;19925;-70
2022/09/17 10:33:26;;;;;;;;;;;13.50;99.90;;;;;;5073381;28;19974;-70
2022/09/17 10:35:57;;;;;;;;;;;13.50;99.90;;;;;;5074024;28;19939;-70
2022/09/17 10:38:28;;;;;;;;;;;13.70;99.90;;;;;;5072491;28;19931;-70
2022/09/17 10:41:08;;;;;;;;;;;14.00;99.90;;;;;;5077621;28;20066;-70
2022/09/17 10:43:35;;;;;;;;;;;14.20;99.90;;;;;;5079834;28;19924;-70
2022/09/17 10:46:02;;;;;;;;;;;14.20;99.90;;;;;;5072611;28;19924;-70
2022/09/17 10:48:31;;;;;;;;;;;14.30;99.90;;;;;;5083637;28;19928;-70
2022/09/17 10:50:58;;;;;;;;;;;14.30;99.90;;;;;;5077732;28;20382;-70
2022/09/17 10:53:25;;;;;;;;;;;14.30;99.90;;;;;;5072910;28;20302;-70
2022/09/17 10:55:56;;;;;;;;;;;14.00;99.90;;;;;;5073956;28;20291;-70
2022/09/17 10:58:29;;;;;;;;;;;13.80;99.90;;;;;;5072656;28;19960;-70
2022/09/17 11:01:01;;;;;;;;;;;13.80;99.90;;;;;;5076518;28;19925;-70
2022/09/17 11:03:46;;;;;;;;;;;13.40;99.90;;;;;;5072465;28;19954;-70
2022/09/17 11:06:22;;;;;;;;;;;13.10;99.90;;;;;;5078587;28;19924;-70
2022/09/17 11:08:54;;;;;;;;;;;13.00;99.90;;;;;;5075536;28;19925;-70
2022/09/17 11:11:27;;;;;;;;;;;13.00;99.90;;;;;;5076302;28;19924;-70
2022/09/17 11:14:00;;;;;;;;;;;12.90;99.90;;;;;;5076689;28;20003;-71
2022/09/17 11:16:32;;;;;;;;;;;12.90;99.90;;;;;;5078301;28;19963;-70
2022/09/17 11:19:03;;;;;;;;;;;12.90;99.90;;;;;;5075236;28;20015;-70
2022/09/17 11:21:40;;;;;;;;;;;12.90;99.90;;;;;;5070966;28;20488;-69
2022/09/17 11:24:29;;;;;;;;;;;12.90;99.90;;;;;;5075905;28;19931;-69
2022/09/17 11:27:02;;;;;;;;;;;13.10;99.90;;;;;;5080878;28;19924;-69
2022/09/17 11:29:36;;;;;;;;;;;13.30;99.90;;;;;;5074433;28;19935;-69
2022/09/17 11:32:07;;;;;;;;;;;13.60;99.90;;;;;;5083086;28;19924;-69
2022/09/17 11:34:36;;;;;;;;;;;13.80;99.90;;;;;;5074975;28;20008;-69
2022/09/17 11:37:08;;;;;;;;;;;14.00;99.90;;;;;;5071503;28;19932;-69
2022/09/17 11:39:40;;;;;;;;;;;14.20;99.90;;;;;;5078742;28;19924;-68
2022/09/17 11:42:09;;;;;;;;;;;14.30;99.90;;;;;;5078026;28;19968;-68
2022/09/17 11:44:38;;;;;;;;;;;14.50;99.90;;;;;;5077509;28;19932;-69
2022/09/17 11:47:09;;;;;;;;;;;14.60;99.90;;;;;;5076341;28;20293;-70
2022/09/17 11:49:38;;;;;;;;;;;14.60;99.90;;;;;;5080202;28;19925;-69
2022/09/17 11:52:07;;;;;;;;;;;14.70;99.90;;;;;;5073696;28;20019;-69
2022/09/17 11:54:37;;;;;;;;;;;14.60;99.90;;;;;;5077703;28;19934;-69
2022/09/17 11:57:09;;;;;;;;;;;14.80;99.90;;;;;;5074213;28;20291;-69
2022/09/17 11:59:42;;;;;;;;;;;15.00;99.90;;;;;;5074699;28;19931;-69
2022/09/17 12:02:14;;;;;;;;;;;15.20;99.90;;;;;;5072002;28;19935;-69
2022/09/17 12:04:44;;;;;;;;;;;15.20;99.90;;;;;;5073702;28;19963;-69
2022/09/17 12:07:16;;;;;;;;;;;15.30;99.90;;;;;;5075927;28;20028;-70
2022/09/17 12:09:45;;;;;;;;;;;15.20;99.90;;;;;;5073697;28;19924;-69
2022/09/17 12:12:14;;;;;;;;;;;15.10;99.90;;;;;;5074879;28;19924;-69
2022/09/17 12:14:46;;;;;;;;;;;15.20;99.90;;;;;;5074333;28;19963;-69
2022/09/17 12:17:16;;;;;;;;;;;15.20;99.90;;;;;;5076811;28;19928;-69
2022/09/17 12:19:45;;;;;;;;;;;15.30;99.90;;;;;;5078188;28;20147;-69
2022/09/17 12:22:14;;;;;;;;;;;15.30;99.90;;;;;;5071988;28;19925;-69
2022/09/17 12:24:41;;;;;;;;;;;15.00;99.90;;;;;;5069237;28;20268;-71
2022/09/17 12:27:18;;;;;;;;;;;15.10;99.90;;;;;;5083547;28;19931;-70
2022/09/17 12:30:09;;;;;;;;;;;14.80;99.90;;;;;;5072306;28;19935;-69
2022/09/17 12:32:56;;;;;;;;;;;14.80;99.90;;;;;;5079528;28;20011;-70
2022/09/17 12:35:31;;;;;;;;;;;14.50;99.90;;;;;;5051994;28;20007;-70
2022/09/17 12:38:05;;;;;;;;;;;14.20;99.90;;;;;;5077062;28;19975;-69
2022/09/17 12:40:35;;;;;;;;;;;14.10;99.90;;;;;;5072068;28;19947;-69
2022/09/17 12:43:09;;;;;;;;;;;13.80;99.90;;;;;;5071581;28;19939;-68
2022/09/17 12:45:46;;;;;;;;;;;13.70;99.90;;;;;;5071209;28;20019;-69
2022/09/17 12:48:34;;;;;;;;;;;13.60;99.90;;;;;;5074984;28;20000;-69
2022/09/17 12:51:07;;;;;;;;;;;13.60;99.90;;;;;;5082712;28;19946;-69
2022/09/17 12:53:36;;;;;;;;;;;13.90;99.90;;;;;;5078444;28;19924;-68
2022/09/17 12:56:07;;;;;;;;;;;14.10;99.90;;;;;;5076675;28;19931;-70
2022/09/17 12:58:42;;;;;;;;;;;14.30;99.90;;;;;;5082361;28;19932;-69
2022/09/17 13:01:13;;;;;;;;;;;14.20;99.90;;;;;;5076979;28;19924;-69
2022/09/17 13:03:42;;;;;;;;;;;14.20;99.90;;;;;;5072258;28;19924;-70
2022/09/17 13:06:20;;;;;;;;;;;14.40;99.90;;;;;;5074866;28;19935;-69
2022/09/17 13:09:03;;;;;;;;;;;14.60;99.90;;;;;;5071619;28;20010;-68
2022/09/17 13:11:46;;;;;;;;;;;14.70;99.90;;;;;;5071569;28;20325;-67
2022/09/17 13:14:16;;;;;;;;;;;14.70;99.90;;;;;;5083048;28;20378;-70
2022/09/17 13:16:46;;;;;;;;;;;14.70;99.90;;;;;;5075117;28;19998;-70
2022/09/17 13:19:21;;;;;;;;;;;14.70;99.90;;;;;;5070878;28;19928;-70
2022/09/17 13:21:53;;;;;;;;;;;14.80;99.90;;;;;;5075842;28;19924;-70
2022/09/17 13:24:21;;;;;;;;;;;15.10;99.90;;;;;;5073873;28;19931;-70
2022/09/17 13:26:48;;;;;;;;;;;15.30;99.90;;;;;;5080100;28;19924;-69
2022/09/17 13:29:29;;;;;;;;;;;15.50;99.90;;;;;;5077147;28;19960;-70
2022/09/17 13:31:58;;;;;;;;;;;15.60;99.90;;;;;;5073592;28;20035;-70
2022/09/17 13:34:29;;;;;;;;;;;15.60;99.90;;;;;;5081650;28;20014;-70
2022/09/17 13:36:56;;;;;;;;;;;15.90;99.90;;;;;;5071541;28;19936;-70
2022/09/17 13:39:39;;;;;;;;;;;16.10;99.90;;;;;;5076905;28;19924;-70
2022/09/17 13:42:08;;;;;;;;;;;16.10;99.90;;;;;;5077823;28;19943;-70
2022/09/17 13:44:36;;;;;;;;;;;16.10;99.90;;;;;;5076487;28;19948;-70
2022/09/17 13:47:16;;;;;;;;;;;16.30;99.90;;;;;;5071924;28;19924;-71
2022/09/17 13:49:48;;;;;;;;;;;16.10;99.90;;;;;;5072927;28;19932;-70
2022/09/17 13:52:15;;;;;;;;;;;15.90;99.90;;;;;;5074901;28;19939;-71
2022/09/17 13:54:42;;;;;;;;;;;16.00;99.90;;;;;;5072243;28;19931;-68
2022/09/17 13:57:13;;;;;;;;;;;15.80;99.90;;;;;;5072183;28;19960;-70
2022/09/17 13:59:52;;;;;;;;;;;15.70;99.90;;;;;;5075304;28;20020;-69
2022/09/17 14:02:34;;;;;;;;;;;15.60;99.90;;;;;;5070320;28;19928;-69
2022/09/17 14:05:20;;;;;;;;;;;15.60;99.90;;;;;;5079979;28;20303;-69
2022/09/17 14:07:50;;;;;;;;;;;15.50;99.90;;;;;;5073887;28;20009;-70
2022/09/17 14:10:33;;;;;;;;;;;15.30;99.90;;;;;;5077750;28;19924;-70
2022/09/17 14:13:21;;;;;;;;;;;14.90;99.90;;;;;;5080482;28;19932;-70
2022/09/17 14:15:55;;;;;;;;;;;14.60;99.90;;;;;;5067922;28;19925;-70
2022/09/17 14:18:49;;;;;;;;;;;14.40;99.90;;;;;;5075157;28;19981;-70
2022/09/17 14:21:23;;;;;;;;;;;14.20;99.90;;;;;;5084298;28;19924;-69
2022/09/17 14:23:54;;;;;;;;;;;13.80;99.90;;;;;;5090181;28;19924;-70
2022/09/17 14:26:27;;;;;;;;;;;13.50;99.90;;;;;;5077059;28;19932;-70
2022/09/17 14:28:59;;;;;;;;;;;13.30;99.90;;;;;;5075793;28;19924;-70
2022/09/17 14:31:31;;;;;;;;;;;13.20;99.90;;;;;;5073921;28;19928;-70
2022/09/17 14:33:57;;;;;;;;;;;13.10;99.90;;;;;;5075325;28;20018;-70